Time;durP1;ratioP1;P1;durP2;ratioP2;P2;SDS_P1;SDS_P2;PMS_P1;PMS_P2;Temp;Humidity;BMP_temperature;BMP_pressure;BME280_temperature;BME280_humidity;BME280_pressure;Samples;Min_cycle;Max_cycle;Signal;HPM_P1;HPM_P2
2023/09/07 00:01:43;;;;;;;7.45;5.88;;;;;;;17.61;91.97;101846.34;5050839;28;20044;-93
2023/09/07 00:04:08;;;;;;;7.68;5.95;;;;;;;17.60;91.78;101848.13;5049825;28;20374;-92
2023/09/07 00:06:34;;;;;;;6.90;5.68;;;;;;;17.58;91.37;101843.88;5045285;28;20025;-93
2023/09/07 00:09:00;;;;;;;6.82;5.90;;;;;;;17.53;91.11;101851.91;5051489;28;20025;-92
2023/09/07 00:11:25;;;;;;;6.55;5.30;;;;;;;17.50;91.02;101843.28;5050678;28;20586;-92
2023/09/07 00:13:51;;;;;;;6.78;5.60;;;;;;;17.47;91.10;101838.16;5049351;28;20612;-92
2023/09/07 00:16:16;;;;;;;6.88;5.50;;;;;;;17.44;90.80;101837.34;5050956;28;20096;-93
2023/09/07 00:18:41;;;;;;;6.35;5.40;;;;;;;17.43;91.32;101837.41;5052532;28;20135;-92
2023/09/07 00:21:06;;;;;;;7.18;5.78;;;;;;;17.40;90.83;101834.91;5051408;28;20025;-92
2023/09/07 00:23:32;;;;;;;7.60;5.45;;;;;;;17.38;91.05;101832.34;5049549;28;20025;-92
2023/09/07 00:25:57;;;;;;;7.28;5.70;;;;;;;17.38;91.74;101834.09;5049941;28;20032;-92
2023/09/07 00:28:22;;;;;;;7.82;5.78;;;;;;;17.36;91.80;101831.53;5051484;28;20246;-91
2023/09/07 00:30:48;;;;;;;7.40;5.60;;;;;;;17.37;92.29;101828.00;5050399;28;20468;-93
2023/09/07 00:33:13;;;;;;;6.70;5.55;;;;;;;17.37;92.48;101830.63;5050626;28;20029;-92
2023/09/07 00:35:38;;;;;;;6.90;5.50;;;;;;;17.35;92.98;101829.81;5051147;28;20107;-92
2023/09/07 00:38:03;;;;;;;7.38;5.10;;;;;;;17.32;91.09;101826.47;5049773;28;20063;-92
2023/09/07 00:40:30;;;;;;;6.50;5.00;;;;;;;17.27;90.98;101816.09;5049661;28;20025;-92
2023/09/07 00:42:55;;;;;;;5.72;4.95;;;;;;;17.23;90.14;101814.53;5049050;28;20021;-91
2023/09/07 00:45:20;;;;;;;7.82;5.22;;;;;;;17.20;90.47;101814.63;5040378;28;20492;-92
2023/09/07 00:47:46;;;;;;;6.45;5.32;;;;;;;17.18;90.44;101813.84;5046450;28;20029;-92
2023/09/07 00:50:16;;;;;;;6.72;5.20;;;;;;;17.17;90.92;101809.47;5048537;28;20029;-89
2023/09/07 00:52:45;;;;;;;6.35;5.10;;;;;;;17.15;91.33;101814.81;5048650;28;20075;-92
2023/09/07 00:55:12;;;;;;;6.35;5.32;;;;;;;17.13;91.46;101806.97;5044756;28;20034;-91
2023/09/07 00:57:39;;;;;;;9.15;5.30;;;;;;;17.14;92.08;101816.56;5044280;28;20485;-90
2023/09/07 01:00:08;;;;;;;6.63;5.25;;;;;;;17.14;92.55;101816.56;5032322;28;20020;-92
2023/09/07 01:02:34;;;;;;;6.50;5.32;;;;;;;17.14;92.81;101823.63;5024080;28;20025;-91
2023/09/07 01:05:00;;;;;;;7.50;5.70;;;;;;;17.12;92.54;101818.41;5045255;28;20086;-92
2023/09/07 01:07:35;;;;;;;7.68;6.05;;;;;;;17.11;92.86;101821.94;5036401;28;20030;-93
2023/09/07 01:10:02;;;;;;;6.65;5.63;;;;;;;17.09;93.22;101823.75;5046882;28;20025;-91
2023/09/07 01:12:28;;;;;;;8.43;4.93;;;;;;;17.07;92.26;101824.75;5051157;28;20021;-92
2023/09/07 01:14:53;;;;;;;7.32;5.32;;;;;;;17.05;92.49;101822.19;5051023;28;20393;-92
2023/09/07 01:17:21;;;;;;;7.75;5.03;;;;;;;17.05;91.72;101823.94;5050975;28;20037;-93
2023/09/07 01:19:49;;;;;;;8.80;5.60;;;;;;;17.03;92.39;101813.50;5033316;28;20108;-90
2023/09/07 01:22:14;;;;;;;5.68;4.97;;;;;;;17.01;91.88;101814.44;5049813;28;20111;-93
2023/09/07 01:24:41;;;;;;;7.90;5.55;;;;;;;16.98;92.37;101812.81;5048415;28;20052;-93
2023/09/07 01:27:06;;;;;;;6.05;5.13;;;;;;;16.95;92.22;101815.53;5049937;28;20082;-93
2023/09/07 01:29:32;;;;;;;9.32;6.25;;;;;;;16.93;92.55;101812.06;5045164;28;20044;-91
2023/09/07 01:31:58;;;;;;;7.63;5.25;;;;;;;16.91;92.77;101816.56;5048910;28;20032;-92
2023/09/07 01:34:24;;;;;;;5.35;3.95;;;;;;;16.88;91.44;101814.03;5049016;28;20029;-92
2023/09/07 01:36:49;;;;;;;5.68;4.55;;;;;;;16.81;91.14;101809.00;5049234;28;20573;-92
2023/09/07 01:39:16;;;;;;;5.70;4.32;;;;;;;16.73;90.52;101805.81;5045520;28;20025;-91
2023/09/07 01:41:41;;;;;;;5.05;4.55;;;;;;;16.69;91.52;101814.72;5045419;28;20025;-94
2023/09/07 01:44:07;;;;;;;4.75;4.20;;;;;;;16.68;91.96;101803.31;5051360;28;20025;-93
2023/09/07 01:46:32;;;;;;;9.18;5.25;;;;;;;16.69;92.04;101809.44;5048937;28;20021;-92
2023/09/07 01:48:57;;;;;;;8.05;5.45;;;;;;;16.67;92.40;101801.59;5047825;28;20033;-92
2023/09/07 01:51:23;;;;;;;9.38;5.90;;;;;;;16.65;92.58;101799.97;5049130;28;20013;-92
2023/09/07 01:53:48;;;;;;;9.23;6.13;;;;;;;16.63;91.74;101802.66;5028042;28;20029;-93
2023/09/07 01:56:16;;;;;;;7.00;5.93;;;;;;;16.61;92.41;101801.84;5054191;28;20091;-92
2023/09/07 01:58:41;;;;;;;7.70;5.78;;;;;;;16.59;92.23;101802.78;5038792;28;20061;-91
2023/09/07 02:01:06;;;;;;;6.68;5.50;;;;;;;16.59;93.43;101797.53;5051959;28;20056;-91
2023/09/07 02:03:31;;;;;;;5.50;4.82;;;;;;;16.56;92.64;101797.66;5052956;28;20059;-91
2023/09/07 02:05:57;;;;;;;5.90;4.78;;;;;;;16.54;92.90;101803.84;5048681;28;20025;-91
2023/09/07 02:08:22;;;;;;;5.93;5.05;;;;;;;16.50;92.72;101796.97;5054707;28;20381;-91
2023/09/07 02:10:47;;;;;;;5.93;4.82;;;;;;;16.44;92.67;101804.22;5051351;28;20021;-92
2023/09/07 02:13:13;;;;;;;6.13;4.15;;;;;;;16.38;91.67;101794.78;5054471;28;20469;-92
2023/09/07 02:15:38;;;;;;;4.25;3.30;;;;;;;16.34;90.45;101794.00;5053174;28;20502;-93
2023/09/07 02:18:05;;;;;;;4.13;3.33;;;;;;;16.32;90.88;101802.88;5053215;28;20020;-92
2023/09/07 02:20:31;;;;;;;4.35;3.42;;;;;;;16.30;91.30;101802.06;5050809;28;20020;-92
2023/09/07 02:22:56;;;;;;;5.38;3.72;;;;;;;16.30;92.42;101802.06;5054677;28;20035;-92
2023/09/07 02:25:22;;;;;;;4.30;3.65;;;;;;;16.30;92.20;101797.69;5051290;28;20040;-91
2023/09/07 02:27:47;;;;;;;6.55;4.43;;;;;;;16.27;91.99;101799.53;5051574;28;20715;-90
2023/09/07 02:30:12;;;;;;;8.60;5.05;;;;;;;16.24;92.18;101797.88;5033873;28;20029;-92
2023/09/07 02:32:37;;;;;;;7.15;5.47;;;;;;;16.24;92.92;101796.09;5026088;28;20120;-91
2023/09/07 02:35:04;;;;;;;7.95;5.82;;;;;;;16.23;93.38;101797.00;5050039;28;20056;-91
2023/09/07 02:37:29;;;;;;;8.40;5.78;;;;;;;16.22;93.15;101800.56;5044235;28;20465;-91
2023/09/07 02:39:54;;;;;;;7.20;5.97;;;;;;;16.19;93.14;101798.03;5042783;28;20029;-91
2023/09/07 02:42:20;;;;;;;7.72;5.70;;;;;;;16.16;93.19;101797.25;5048954;28;20033;-91
2023/09/07 02:44:45;;;;;;;6.00;4.80;;;;;;;16.13;92.44;101795.63;5048042;28;20086;-91
2023/09/07 02:47:10;;;;;;;6.25;4.07;;;;;;;16.13;92.59;101795.63;5048282;28;20033;-92
2023/09/07 02:49:36;;;;;;;5.55;4.18;;;;;;;16.12;92.84;101799.16;5042618;28;20112;-92
2023/09/07 02:52:01;;;;;;;6.68;4.80;;;;;;;16.10;93.37;101806.22;5050970;28;20504;-93
2023/09/07 02:54:26;;;;;;;8.98;5.20;;;;;;;16.09;93.15;101804.50;5054220;28;20033;-91
2023/09/07 02:56:51;;;;;;;6.20;4.93;;;;;;;16.08;93.75;101808.03;5026200;28;20067;-91
2023/09/07 02:59:17;;;;;;;7.50;5.07;;;;;;;16.04;93.58;101806.44;5038876;28;20165;-91
2023/09/07 03:01:42;;;;;;;6.00;4.50;;;;;;;16.02;93.32;101808.25;5047637;28;20074;-91
2023/09/07 03:04:07;;;;;;;5.50;4.57;;;;;;;15.98;93.48;101798.75;5050771;28;20021;-92
2023/09/07 03:06:33;;;;;;;4.90;3.72;;;;;;;15.95;92.45;101798.84;5050004;28;20388;-92
2023/09/07 03:08:58;;;;;;;3.30;2.90;;;;;;;15.90;91.91;101797.22;5051100;28;20044;-92
2023/09/07 03:11:23;;;;;;;4.65;3.72;;;;;;;15.88;91.85;101795.56;5045016;28;20490;-91
2023/09/07 03:13:49;;;;;;;4.78;3.95;;;;;;;15.85;91.63;101791.28;5050911;28;20018;-89
2023/09/07 03:16:14;;;;;;;4.93;4.05;;;;;;;15.84;91.82;101793.91;5045299;28;20032;-91
2023/09/07 03:18:40;;;;;;;4.88;3.85;;;;;;;15.87;93.32;101792.09;5053661;28;20032;-92
2023/09/07 03:21:05;;;;;;;6.00;4.65;;;;;;;15.88;94.31;101792.94;5043874;28;20024;-92
2023/09/07 03:23:32;;;;;;;7.30;5.32;;;;;;;15.91;94.59;101801.56;5049689;28;20037;-90
2023/09/07 03:25:58;;;;;;;7.65;5.40;;;;;;;15.91;95.08;101791.06;5051070;28;20064;-91
2023/09/07 03:28:25;;;;;;;8.60;6.03;;;;;;;15.95;95.29;101796.22;5048018;28;20067;-93
2023/09/07 03:30:50;;;;;;;7.45;5.82;;;;;;;15.95;94.88;101793.59;5050940;28;20117;-92
2023/09/07 03:33:16;;;;;;;9.00;5.88;;;;;;;15.96;95.28;101795.31;5051534;28;20543;-92
2023/09/07 03:35:41;;;;;;;9.32;6.00;;;;;;;15.98;95.93;101788.25;5051300;28;20613;-92
2023/09/07 03:38:06;;;;;;;10.18;6.85;;;;;;;16.01;96.32;101791.63;5048980;28;20033;-92
2023/09/07 03:40:32;;;;;;;8.57;6.25;;;;;;;16.03;96.77;101796.84;5051778;28;20139;-91
2023/09/07 03:42:57;;;;;;;8.38;6.70;;;;;;;16.04;96.93;101785.44;5051632;28;20452;-92
2023/09/07 03:45:22;;;;;;;8.20;6.45;;;;;;;16.06;96.89;101789.72;5053015;28;20060;-91
2023/09/07 03:47:47;;;;;;;9.75;6.43;;;;;;;16.10;96.99;101797.50;5049144;28;20017;-93
2023/09/07 03:50:13;;;;;;;10.07;6.57;;;;;;;16.10;97.19;101798.34;5041611;28;20032;-91
2023/09/07 03:52:38;;;;;;;7.78;6.10;;;;;;;16.14;97.15;101801.75;5052158;28;20107;-91
2023/09/07 03:55:04;;;;;;;9.45;6.43;;;;;;;16.14;96.85;101802.59;5053447;28;20047;-91
2023/09/07 03:57:29;;;;;;;9.00;6.18;;;;;;;16.12;95.00;101806.19;5051296;28;20090;-91
2023/09/07 03:59:56;;;;;;;8.15;6.35;;;;;;;16.09;95.55;101801.88;5044852;28;20492;-91
2023/09/07 04:02:22;;;;;;;9.35;6.43;;;;;;;16.09;95.44;101809.75;5050758;28;20029;-92
2023/09/07 04:04:49;;;;;;;8.00;5.95;;;;;;;16.08;94.82;101808.03;5050204;28;20039;-91
2023/09/07 04:07:14;;;;;;;7.70;5.95;;;;;;;16.05;94.92;101811.63;5051053;28;20025;-91
2023/09/07 04:09:40;;;;;;;10.52;6.55;;;;;;;16.02;94.83;101808.25;5025240;28;20056;-91
2023/09/07 04:12:06;;;;;;;9.60;6.93;;;;;;;15.99;95.15;101803.09;5052790;28;20029;-91
2023/09/07 04:14:31;;;;;;;9.25;6.00;;;;;;;15.93;94.09;101805.00;5046935;28;20070;-91
2023/09/07 04:16:57;;;;;;;9.23;6.05;;;;;;;15.91;94.36;101804.19;5047386;28;20029;-91
2023/09/07 04:19:22;;;;;;;8.27;5.90;;;;;;;15.86;94.88;101797.38;5048927;28;20021;-91
2023/09/07 04:21:47;;;;;;;7.75;5.72;;;;;;;15.85;94.97;101799.16;5049001;28;20025;-92
2023/09/07 04:24:13;;;;;;;7.65;5.68;;;;;;;15.84;94.96;101788.66;5051191;28;20532;-92
2023/09/07 04:26:38;;;;;;;5.70;4.70;;;;;;;15.81;93.75;101794.00;5048810;28;20021;-91
2023/09/07 04:29:03;;;;;;;5.65;4.82;;;;;;;15.77;92.30;101788.88;5048323;28;20048;-92
2023/09/07 04:31:29;;;;;;;7.20;5.28;;;;;;;15.72;92.59;101789.91;5047702;28;20037;-92
2023/09/07 04:33:54;;;;;;;5.28;4.70;;;;;;;15.69;93.11;101784.81;5047830;28;20032;-92
2023/09/07 04:36:20;;;;;;;5.40;4.60;;;;;;;15.65;93.06;101788.41;5040615;28;20140;-93
2023/09/07 04:38:45;;;;;;;5.60;4.65;;;;;;;15.64;93.90;101792.78;5047849;28;20177;-92
2023/09/07 04:41:13;;;;;;;6.07;5.40;;;;;;;15.62;93.78;101792.00;5042773;28;20066;-92
2023/09/07 04:43:40;;;;;;;5.97;4.88;;;;;;;15.62;93.98;101798.09;5039685;28;20025;-91
2023/09/07 04:46:06;;;;;;;6.65;5.15;;;;;;;15.61;94.32;101799.00;5044596;28;20103;-92
2023/09/07 04:48:32;;;;;;;7.25;5.03;;;;;;;15.62;93.98;101805.97;5044597;28;20075;-92
2023/09/07 04:51:07;;;;;;;5.97;4.60;;;;;;;15.61;93.99;101806.03;5046789;28;20106;-92
2023/09/07 04:53:35;;;;;;;8.55;5.63;;;;;;;15.59;93.86;101808.69;5045546;28;20060;-92
2023/09/07 04:56:01;;;;;;;7.07;5.28;;;;;;;15.55;93.33;101809.69;5041415;28;20118;-91
2023/09/07 04:58:27;;;;;;;6.90;5.35;;;;;;;15.51;93.75;101802.84;5040092;28;20357;-91
2023/09/07 05:00:52;;;;;;;8.23;5.70;;;;;;;15.47;93.62;101806.44;5020090;28;20037;-90
2023/09/07 05:03:18;;;;;;;8.32;5.90;;;;;;;15.45;93.85;101803.00;5046325;28;20033;-91
2023/09/07 05:05:43;;;;;;;7.50;5.68;;;;;;;15.41;93.50;101806.63;5045545;28;20028;-91
2023/09/07 05:08:09;;;;;;;9.13;5.20;;;;;;;15.41;93.28;101801.38;5041384;28;20552;-92
2023/09/07 05:10:35;;;;;;;6.35;4.80;;;;;;;15.39;93.25;101814.56;5044127;28;20047;-91
2023/09/07 05:13:00;;;;;;;7.40;5.07;;;;;;;15.40;93.44;101811.03;5043620;28;20380;-91
2023/09/07 05:15:26;;;;;;;6.80;5.18;;;;;;;15.38;93.89;101812.84;5040634;28;20036;-91
2023/09/07 05:17:54;;;;;;;7.13;4.93;;;;;;;15.37;93.59;101815.50;5040549;28;20151;-92
2023/09/07 05:20:20;;;;;;;6.95;4.93;;;;;;;15.36;93.52;101813.78;5041951;28;20078;-91
2023/09/07 05:22:45;;;;;;;7.10;5.40;;;;;;;15.34;94.08;101811.19;5045605;28;20116;-91
2023/09/07 05:25:11;;;;;;;10.38;5.90;;;;;;;15.32;94.48;101813.88;5043527;28;20078;-91
2023/09/07 05:27:37;;;;;;;8.60;5.85;;;;;;;15.30;95.40;101820.94;5045219;28;20051;-91
2023/09/07 05:30:04;;;;;;;7.72;5.80;;;;;;;15.32;95.43;101819.13;5043600;28;20032;-92
2023/09/07 05:32:29;;;;;;;9.30;5.97;;;;;;;15.33;95.81;101822.59;5052356;28;20580;-92
2023/09/07 05:34:54;;;;;;;7.40;5.55;;;;;;;15.36;95.46;101830.38;5052511;28;20029;-91
2023/09/07 05:37:20;;;;;;;6.57;5.03;;;;;;;15.39;95.27;101825.03;5028011;28;20032;-93
2023/09/07 05:39:45;;;;;;;7.68;5.47;;;;;;;15.40;95.50;101825.88;5040360;28;20025;-91
2023/09/07 05:42:12;;;;;;;7.97;5.90;;;;;;;15.41;95.64;101832.84;5014930;28;20113;-90
2023/09/07 05:44:37;;;;;;;9.50;5.88;;;;;;;15.41;95.56;101836.34;5046429;28;20032;-91
2023/09/07 05:47:03;;;;;;;6.55;5.30;;;;;;;15.43;95.95;101836.28;5024511;28;20021;-89
2023/09/07 05:49:29;;;;;;;7.70;5.57;;;;;;;15.46;95.80;101841.44;5043408;28;20021;-90
2023/09/07 05:51:54;;;;;;;8.43;5.72;;;;;;;15.47;96.45;101843.16;5043198;28;20064;-90
2023/09/07 05:54:19;;;;;;;7.30;5.53;;;;;;;15.48;96.26;101835.22;5043443;28;20033;-90
2023/09/07 05:56:45;;;;;;;7.72;5.53;;;;;;;15.54;96.61;101844.69;5049979;28;20024;-90
2023/09/07 05:59:10;;;;;;;7.60;5.45;;;;;;;15.59;96.26;101840.16;5030331;28;20026;-89
2023/09/07 06:01:35;;;;;;;8.45;6.03;;;;;;;15.63;97.07;101844.41;5048104;28;20392;-90
2023/09/07 06:04:01;;;;;;;7.57;5.97;;;;;;;15.69;97.67;101843.34;5046744;28;20086;-90
2023/09/07 06:06:26;;;;;;;9.48;6.75;;;;;;;15.77;98.09;101841.38;5047560;28;20044;-91
2023/09/07 06:08:51;;;;;;;11.57;7.32;;;;;;;15.85;98.14;101843.78;5045521;28;20400;-89
2023/09/07 06:11:16;;;;;;;12.13;7.50;;;;;;;15.97;98.19;101846.91;5041140;28;20044;-90
2023/09/07 06:13:42;;;;;;;11.15;7.75;;;;;;;16.06;98.53;101843.97;5040423;28;20021;-90
2023/09/07 06:16:07;;;;;;;11.35;7.55;;;;;;;16.15;98.20;101846.31;5042056;28;20373;-90
2023/09/07 06:18:32;;;;;;;11.32;7.72;;;;;;;16.26;98.20;101852.94;5043705;28;20373;-90
2023/09/07 06:20:58;;;;;;;11.00;7.40;;;;;;;16.34;98.62;101850.94;5041301;28;20064;-90
2023/09/07 06:23:23;;;;;;;10.63;7.32;;;;;;;16.42;98.07;101851.53;5047868;28;20025;-89
2023/09/07 06:25:48;;;;;;;9.98;7.45;;;;;;;16.50;97.59;101861.75;5042849;28;20037;-89
2023/09/07 06:28:14;;;;;;;9.25;7.07;;;;;;;16.59;97.80;101861.47;5048018;28;20035;-90
2023/09/07 06:30:39;;;;;;;10.82;7.32;;;;;;;16.67;97.74;101861.19;5042254;28;20091;-90
2023/09/07 06:33:04;;;;;;;10.95;7.75;;;;;;;16.73;97.49;101858.38;5049310;28;20029;-90
2023/09/07 06:35:30;;;;;;;10.10;7.35;;;;;;;16.82;97.51;101862.44;5049143;28;20036;-90
2023/09/07 06:37:56;;;;;;;11.85;8.13;;;;;;;16.89;97.45;101863.91;5049375;28;20037;-91
2023/09/07 06:40:21;;;;;;;11.70;7.90;;;;;;;16.97;97.21;101866.28;5047308;28;20025;-91
2023/09/07 06:42:47;;;;;;;11.05;8.13;;;;;;;17.04;96.81;101867.78;5053182;28;20037;-90
2023/09/07 06:45:12;;;;;;;12.23;7.93;;;;;;;17.11;96.88;101869.28;5053633;28;20035;-91
2023/09/07 06:47:37;;;;;;;11.88;7.78;;;;;;;17.19;96.37;101876.88;5036633;28;20472;-90
2023/09/07 06:50:04;;;;;;;10.60;7.55;;;;;;;17.25;96.07;101870.56;5065338;28;20028;-89
2023/09/07 06:52:30;;;;;;;12.60;7.70;;;;;;;17.33;95.93;101878.16;5053700;28;20053;-91
2023/09/07 06:54:55;;;;;;;10.20;7.25;;;;;;;17.38;95.50;101877.06;5051041;28;20029;-89
2023/09/07 06:57:21;;;;;;;9.45;7.20;;;;;;;17.45;95.51;101878.53;5044307;28;20029;-90
2023/09/07 06:59:46;;;;;;;9.05;6.97;;;;;;;17.52;96.30;101883.56;5051438;28;20433;-90
2023/09/07 07:02:11;;;;;;;9.48;6.85;;;;;;;17.58;94.76;101878.06;5032869;28;20172;-90
2023/09/07 07:04:36;;;;;;;10.73;7.03;;;;;;;17.65;94.56;101873.44;5048622;28;20024;-90
2023/09/07 07:07:04;;;;;;;9.57;7.07;;;;;;;17.71;94.83;101879.31;5047837;28;20099;-90
2023/09/07 07:09:30;;;;;;;7.90;6.20;;;;;;;17.77;94.01;101877.31;5047438;28;20528;-91
2023/09/07 07:11:55;;;;;;;8.98;7.00;;;;;;;17.83;94.10;101877.97;5048270;28;20056;-92
2023/09/07 07:14:21;;;;;;;10.48;6.00;;;;;;;17.90;93.91;101873.31;5045081;28;20420;-90
2023/09/07 07:16:46;;;;;;;8.60;6.32;;;;;;;17.98;93.70;101883.56;5048630;28;20026;-94
2023/09/07 07:19:11;;;;;;;9.15;6.25;;;;;;;18.05;93.61;101887.63;5050705;28;20032;-96
2023/09/07 07:21:37;;;;;;;10.52;7.22;;;;;;;18.11;93.43;101879.50;5044006;28;20029;-91
2023/09/07 07:24:04;;;;;;;8.35;6.18;;;;;;;18.17;92.40;101881.03;5030867;28;20473;-91
2023/09/07 07:26:29;;;;;;;7.28;6.03;;;;;;;18.25;92.41;101878.06;5063118;28;20132;-90
2023/09/07 07:28:55;;;;;;;7.15;5.50;;;;;;;18.31;92.16;101880.47;5043404;28;20520;-93
2023/09/07 07:31:20;;;;;;;9.38;6.13;;;;;;;18.39;92.84;101874.88;5049408;28;20029;-93
2023/09/07 07:33:48;;;;;;;8.60;6.05;;;;;;;18.45;92.04;101874.59;5048841;28;20219;-91
2023/09/07 07:36:13;;;;;;;7.88;5.43;;;;;;;18.51;91.42;101879.59;5046908;28;20045;-86
2023/09/07 07:38:39;;;;;;;7.13;5.65;;;;;;;18.60;90.32;101873.09;5046946;28;20429;-86
2023/09/07 07:41:04;;;;;;;8.18;5.78;;;;;;;18.64;90.60;101880.78;5047014;28;20125;-87
2023/09/07 07:43:30;;;;;;;7.10;5.53;;;;;;;18.73;90.05;101878.69;5048878;28;20037;-91
2023/09/07 07:45:55;;;;;;;10.40;5.60;;;;;;;18.78;89.72;101874.06;5045667;28;20455;-91
2023/09/07 07:48:21;;;;;;;7.25;5.43;;;;;;;18.85;89.88;101875.50;5046673;28;20465;-89
2023/09/07 07:50:46;;;;;;;7.43;5.65;;;;;;;18.91;87.71;101882.28;5046015;28;20037;-89
2023/09/07 07:53:11;;;;;;;9.07;5.60;;;;;;;18.99;88.43;101874.06;5047726;28;20492;-94
2023/09/07 07:55:38;;;;;;;7.03;5.25;;;;;;;19.06;88.06;101875.50;5045044;28;20034;-90
2023/09/07 07:58:10;;;;;;;8.38;5.55;;;;;;;19.10;86.30;101877.94;5043856;28;20119;-91
2023/09/07 08:00:38;;;;;;;8.75;5.38;;;;;;;19.17;87.70;101878.50;5045947;28;20032;-91
2023/09/07 08:03:08;;;;;;;7.30;5.18;;;;;;;19.21;86.49;101874.81;5048800;28;20033;-90
2023/09/07 08:05:34;;;;;;;7.78;5.60;;;;;;;19.26;85.84;101877.22;5045083;28;20024;-90
2023/09/07 08:08:00;;;;;;;7.68;5.65;;;;;;;19.35;86.79;101873.31;5043499;28;20028;-92
2023/09/07 08:10:25;;;;;;;8.13;5.70;;;;;;;19.40;86.40;101868.69;5047031;28;20118;-90
2023/09/07 08:12:55;;;;;;;9.07;5.57;;;;;;;19.47;86.55;101867.44;5046148;28;20507;-90
2023/09/07 08:15:22;;;;;;;9.95;5.55;;;;;;;19.54;85.73;101866.25;5045007;28;20174;-90
2023/09/07 08:17:48;;;;;;;8.60;5.35;;;;;;;19.62;86.03;101865.03;5040865;28;20032;-92
2023/09/07 08:20:14;;;;;;;6.88;5.30;;;;;;;19.69;85.73;101863.78;5049376;28;20033;-90
2023/09/07 08:22:42;;;;;;;6.50;5.10;;;;;;;19.74;83.90;101867.06;5048420;28;20484;-90
2023/09/07 08:25:09;;;;;;;7.82;5.00;;;;;;;19.80;84.34;101856.22;5049907;28;20029;-90
2023/09/07 08:27:34;;;;;;;7.85;4.90;;;;;;;19.88;83.62;101855.88;5026847;28;20013;-90
2023/09/07 08:29:59;;;;;;;7.03;4.75;;;;;;;19.96;83.50;101853.72;5045191;28;20397;-93
2023/09/07 08:32:25;;;;;;;6.20;4.90;;;;;;;20.02;82.99;101852.53;5043298;22;20045;-89
2023/09/07 08:40:46;;;;;;;5.70;4.57;;;;;;;20.25;81.87;101855.84;4535910;22;20057;-89
2023/09/07 08:43:21;;;;;;;7.28;4.10;;;;;;;20.30;81.82;101844.09;5037786;28;20109;-94
2023/09/07 08:49:06;;;;;;;6.40;4.22;;;;;;;20.42;78.88;101836.47;5005467;28;20014;-94
2023/09/07 08:51:41;;;;;;;5.80;4.55;;;;;;;20.50;78.95;101838.69;5036552;28;20024;-93
2023/09/07 08:54:33;;;;;;;;;;;;;;;;;;;;;
2023/09/07 08:57:15;;;;;;;;;;;;;;;;;;;;;
2023/09/07 08:59:40;;;;;;;6.22;4.35;;;;;;;20.69;78.65;101834.16;5031332;28;20029;-89
2023/09/07 09:02:09;;;;;;;6.63;4.40;;;;;;;20.77;79.00;101841.72;5028381;28;20124;-89
2023/09/07 09:04:35;;;;;;;7.63;4.82;;;;;;;20.83;77.01;101835.28;5031616;28;20033;-89
2023/09/07 09:07:03;;;;;;;6.40;4.90;;;;;;;20.88;77.04;101838.50;5032770;28;20022;-90
2023/09/07 09:09:29;;;;;;;6.88;4.75;;;;;;;20.93;77.64;101825.91;5014970;28;20095;-89
2023/09/07 09:11:54;;;;;;;6.80;4.68;;;;;;;20.97;75.79;101831.88;5029921;28;20575;-93
2023/09/07 09:14:21;;;;;;;6.22;4.57;;;;;;;21.02;78.14;101830.69;5023992;28;20523;-90
2023/09/07 09:16:52;;;;;;;5.70;4.80;;;;;;;21.09;77.87;101825.94;5002588;28;20197;-96
2023/09/07 09:19:18;;;;;;;6.30;4.60;;;;;;;21.15;76.70;101830.03;5035293;28;20025;-88
2023/09/07 09:27:43;;;;;;;;;;;;;;;;;;;;;
2023/09/07 09:30:42;;;;;;;5.82;4.03;;;;;;;21.41;76.52;101831.22;5033765;28;20040;-94
2023/09/07 09:33:10;;;;;;;5.15;3.75;;;;;;;21.45;74.30;101826.59;5008403;28;20030;-93
2023/09/07 09:35:56;;;;;;;4.65;3.60;;;;;;;21.55;76.15;101824.28;5007195;28;20037;-95
2023/09/07 09:38:21;;;;;;;5.38;3.95;;;;;;;21.58;73.38;101817.03;5007925;28;20057;-93
2023/09/07 09:40:47;;;;;;;6.68;3.90;;;;;;;21.66;73.33;101820.13;5006724;28;20064;-89
2023/09/07 09:43:13;;;;;;;5.93;3.58;;;;;;;21.73;74.67;101819.75;5007742;28;20057;-90
2023/09/07 09:45:39;;;;;;;6.93;3.90;;;;;;;21.77;73.54;101819.53;5007039;28;20025;-91
2023/09/07 09:48:05;;;;;;;5.30;3.75;;;;;;;21.83;71.86;101820.94;5008100;28;20018;-90
2023/09/07 09:50:32;;;;;;;9.60;3.95;;;;;;;21.86;72.47;101809.31;5007101;28;20033;-93
2023/09/07 09:52:58;;;;;;;4.40;3.55;;;;;;;21.90;72.28;101810.84;5006320;28;20052;-88
2023/09/07 09:55:23;;;;;;;5.22;3.50;;;;;;;21.94;71.66;101810.56;5006358;28;20022;-87
2023/09/07 09:57:51;;;;;;;5.20;3.90;;;;;;;22.01;72.00;101807.56;5003821;28;20034;-86
2023/09/07 10:02:45;;;;;;;5.05;3.72;;;;;;;22.12;71.66;101799.84;5006598;28;20113;-91
2023/09/07 10:05:12;;;;;;;7.05;3.78;;;;;;;22.17;72.70;101802.19;5006654;28;20026;-94
2023/09/07 10:07:47;;;;;;;5.03;3.90;;;;;;;22.22;72.60;101794.84;5004261;28;20021;-92
2023/09/07 10:10:14;;;;;;;5.30;3.75;;;;;;;22.26;72.14;101791.91;5008468;28;20084;-93
2023/09/07 10:12:44;;;;;;;7.05;3.60;;;;;;;22.34;71.10;101794.09;5007512;28;20054;-93
2023/09/07 10:15:27;;;;;;;5.60;3.70;;;;;;;22.40;72.33;101793.72;5006954;28;20026;-95
2023/09/07 10:18:13;;;;;;;5.45;3.50;;;;;;;22.43;71.70;101796.22;5006536;28;20038;-93
2023/09/07 10:20:57;;;;;;;5.03;3.78;;;;;;;22.44;71.01;101794.41;5004689;28;20110;-96
2023/09/07 10:23:43;;;;;;;4.80;3.55;;;;;;;22.49;70.85;101797.66;5013701;28;20091;-93
2023/09/07 10:26:16;;;;;;;4.78;3.70;;;;;;;22.54;70.25;101794.72;5010389;28;20129;-96
2023/09/07 10:28:44;;;;;;;5.43;3.40;;;;;;;22.57;69.46;101790.06;5008871;28;20054;-93
2023/09/07 10:31:17;;;;;;;5.43;3.60;;;;;;;22.64;69.82;101792.34;5006915;28;20389;-93
2023/09/07 10:33:44;;;;;;;5.15;3.42;;;;;;;22.69;67.91;101788.44;5009649;28;20053;-94
2023/09/07 10:36:21;;;;;;;4.63;3.28;;;;;;;22.74;69.77;101791.69;5010410;28;20375;-94
2023/09/07 10:38:47;;;;;;;5.60;3.28;;;;;;;22.82;69.48;101788.53;5010869;28;20516;-92
2023/09/07 10:41:12;;;;;;;3.78;3.10;;;;;;;22.85;66.89;101788.34;5007807;28;20037;-89
2023/09/07 10:43:47;;;;;;;6.20;3.47;;;;;;;22.88;67.67;101788.16;5006305;28;20058;-88
2023/09/07 10:46:13;;;;;;;4.78;3.28;;;;;;;22.92;67.42;101787.94;5006524;28;20033;-89
2023/09/07 10:48:38;;;;;;;5.20;3.28;;;;;;;22.98;66.79;101792.88;5006331;28;20025;-89
2023/09/07 10:51:03;;;;;;;3.85;3.17;;;;;;;23.04;69.05;101792.50;5005581;28;20017;-93
2023/09/07 10:53:31;;;;;;;5.70;3.33;;;;;;;23.09;70.29;101789.53;5005279;28;20034;-91
2023/09/07 10:55:58;;;;;;;5.82;3.30;;;;;;;23.13;68.39;101785.75;5010254;28;20532;-94
2023/09/07 10:58:30;;;;;;;4.18;3.20;;;;;;;23.14;68.28;101782.97;5011065;28;20030;-91
2023/09/07 11:00:55;;;;;;;;;;;;;;;23.17;69.85;101773.97;5009942;28;20068;-95
2023/09/07 11:03:20;;;;;;;3.58;3.00;;;;;;;23.19;66.55;101775.59;5006169;28;19921;-92
2023/09/07 11:05:46;;;;;;;4.00;3.05;;;;;;;23.23;65.19;101764.81;5003716;28;20030;-94
2023/09/07 11:08:12;;;;;;;4.47;3.13;;;;;;;23.27;65.56;101772.47;5006355;28;20109;-94
2023/09/07 11:10:37;;;;;;;5.32;3.25;;;;;;;23.31;66.65;101765.13;5003879;28;20029;-90
2023/09/07 11:13:04;;;;;;;5.40;3.38;;;;;;;23.34;66.28;101767.59;5011982;28;20014;-91
2023/09/07 11:15:36;;;;;;;3.90;3.38;;;;;;;23.35;65.18;101764.00;5018160;28;20034;-91
2023/09/07 11:18:08;;;;;;;3.55;3.20;;;;;;;23.39;65.92;101760.19;5004906;28;20482;-88
2023/09/07 11:20:35;;;;;;;7.15;3.75;;;;;;;23.44;66.69;101755.41;5003812;28;20033;-89
2023/09/07 11:23:01;;;;;;;5.93;2.97;;;;;;;23.48;64.87;101753.44;5005122;28;20057;-94
2023/09/07 11:25:27;;;;;;;4.63;3.13;;;;;;;23.51;63.08;101757.66;5005196;28;20125;-91
2023/09/07 11:27:54;;;;;;;4.38;3.10;;;;;;;23.55;64.85;101751.22;5004412;28;20132;-90
2023/09/07 11:30:21;;;;;;;5.53;3.30;;;;;;;23.57;64.51;101742.19;5002595;28;20030;-90
2023/09/07 11:32:46;;;;;;;4.30;3.20;;;;;;;23.61;64.27;101751.66;5003035;28;20095;-84
2023/09/07 11:35:11;;;;;;;4.25;3.00;;;;;;;23.64;65.14;101753.25;5004898;28;20061;-92
2023/09/07 11:37:37;;;;;;;5.45;3.30;;;;;;;23.67;65.27;101752.16;5004224;28;20104;-91
2023/09/07 11:40:10;;;;;;;4.13;3.40;;;;;;;23.70;62.33;101750.19;5005618;28;20417;-92
2023/09/07 11:42:36;;;;;;;4.65;3.15;;;;;;;23.72;61.38;101748.28;5003259;28;20062;-94
2023/09/07 11:45:06;;;;;;;3.90;3.28;;;;;;;23.79;63.68;101752.19;5006334;28;20058;-92